sensor_id;sensor_type;location;lat;lon;timestamp;pressure;altitude;pressure_sealevel;temperature;humidity
42169;BME280;27838;43.858;25.974;2024-03-17T00:02:12;101471.22;;;12.59;52.79
42169;BME280;27838;43.858;25.974;2024-03-17T00:04:39;101478.19;;;12.58;53.36
42169;BME280;27838;43.858;25.974;2024-03-17T00:07:04;101479.03;;;12.54;54.58
42169;BME280;27838;43.858;25.974;2024-03-17T00:09:31;101478.16;;;12.54;53.71
42169;BME280;27838;43.858;25.974;2024-03-17T00:11:57;101482.53;;;12.53;54.70
42169;BME280;27838;43.858;25.974;2024-03-17T00:14:25;101480.78;;;12.52;55.75
42169;BME280;27838;43.858;25.974;2024-03-17T00:16:52;101482.50;;;12.50;55.92
42169;BME280;27838;43.858;25.974;2024-03-17T00:19:19;101479.03;;;12.48;56.47
42169;BME280;27838;43.858;25.974;2024-03-17T00:21:48;101474.63;;;12.45;56.96
42169;BME280;27838;43.858;25.974;2024-03-17T00:24:16;101476.41;;;12.46;57.00
42169;BME280;27838;43.858;25.974;2024-03-17T00:26:41;101473.78;;;12.48;57.10
42169;BME280;27838;43.858;25.974;2024-03-17T00:29:08;101476.41;;;12.50;56.32
42169;BME280;27838;43.858;25.974;2024-03-17T00:31:34;101472.91;;;12.47;55.85
42169;BME280;27838;43.858;25.974;2024-03-17T00:34:01;101475.50;;;12.43;55.65
42169;BME280;27838;43.858;25.974;2024-03-17T00:36:26;101474.66;;;12.42;55.54
42169;BME280;27838;43.858;25.974;2024-03-17T00:38:53;101472.00;;;12.38;54.95
42169;BME280;27838;43.858;25.974;2024-03-17T00:41:19;101461.50;;;12.28;56.04
42169;BME280;27838;43.858;25.974;2024-03-17T00:43:46;101471.06;;;12.28;55.67
42169;BME280;27838;43.858;25.974;2024-03-17T00:46:12;101465.84;;;12.25;55.62
42169;BME280;27838;43.858;25.974;2024-03-17T00:48:39;101465.84;;;12.23;55.27
42169;BME280;27838;43.858;25.974;2024-03-17T00:51:05;101468.44;;;12.20;55.45
42169;BME280;27838;43.858;25.974;2024-03-17T00:53:31;101465.78;;;12.14;55.64
42169;BME280;27838;43.858;25.974;2024-03-17T00:55:58;101464.88;;;12.12;56.00
42169;BME280;27838;43.858;25.974;2024-03-17T00:58:25;101462.25;;;12.11;56.27
42169;BME280;27838;43.858;25.974;2024-03-17T01:00:52;101461.41;;;12.10;56.59
42169;BME280;27838;43.858;25.974;2024-03-17T01:03:18;101458.81;;;12.12;55.87
42169;BME280;27838;43.858;25.974;2024-03-17T01:05:45;101461.44;;;12.15;55.59
42169;BME280;27838;43.858;25.974;2024-03-17T01:08:16;101457.06;;;12.15;55.16
42169;BME280;27838;43.858;25.974;2024-03-17T01:10:45;101461.44;;;12.16;55.02
42169;BME280;27838;43.858;25.974;2024-03-17T01:13:11;101458.81;;;12.12;55.44
42169;BME280;27838;43.858;25.974;2024-03-17T01:15:39;101457.94;;;12.13;55.33
42169;BME280;27838;43.858;25.974;2024-03-17T01:18:05;101453.56;;;12.10;55.17
42169;BME280;27838;43.858;25.974;2024-03-17T01:20:34;101456.16;;;12.07;54.99
42169;BME280;27838;43.858;25.974;2024-03-17T01:23:01;101466.63;;;12.04;54.53
42169;BME280;27838;43.858;25.974;2024-03-17T01:25:28;101449.91;;;11.88;54.71
42169;BME280;27838;43.858;25.974;2024-03-17T01:27:55;101463.94;;;11.96;54.71
42169;BME280;27838;43.858;25.974;2024-03-17T01:30:22;101461.28;;;11.93;54.42
42169;BME280;27838;43.858;25.974;2024-03-17T01:32:48;101457.75;;;11.89;54.84
42169;BME280;27838;43.858;25.974;2024-03-17T01:35:15;101467.38;;;11.90;55.09
42169;BME280;27838;43.858;25.974;2024-03-17T01:37:42;101468.22;;;11.89;55.00
42169;BME280;27838;43.858;25.974;2024-03-17T01:40:09;101460.38;;;11.85;55.47
42169;BME280;27838;43.858;25.974;2024-03-17T01:42:39;101466.41;;;11.79;54.88
42169;BME280;27838;43.858;25.974;2024-03-17T01:45:29;101464.59;;;11.69;55.14
42169;BME280;27838;43.858;25.974;2024-03-17T01:47:57;101460.16;;;11.57;55.12
42169;BME280;27838;43.858;25.974;2024-03-17T01:50:34;101465.38;;;11.56;54.79
42169;BME280;27838;43.858;25.974;2024-03-17T01:53:02;101463.59;;;11.51;54.92
42169;BME280;27838;43.858;25.974;2024-03-17T01:55:36;101464.38;;;11.44;54.90
42169;BME280;27838;43.858;25.974;2024-03-17T01:58:04;101462.50;;;11.25;54.96
42169;BME280;27838;43.858;25.974;2024-03-17T02:00:33;101457.13;;;11.09;55.09
42169;BME280;27838;43.858;25.974;2024-03-17T02:02:59;101470.19;;;11.08;55.29
42169;BME280;27838;43.858;25.974;2024-03-17T02:05:27;101467.56;;;11.06;55.82
42169;BME280;27838;43.858;25.974;2024-03-17T02:07:54;101471.88;;;11.06;55.72
42169;BME280;27838;43.858;25.974;2024-03-17T02:10:20;101464.03;;;11.04;55.79
42169;BME280;27838;43.858;25.974;2024-03-17T02:12:47;101483.16;;;11.03;55.93
42169;BME280;27838;43.858;25.974;2024-03-17T02:15:15;101481.41;;;10.99;55.90
42169;BME280;27838;43.858;25.974;2024-03-17T02:17:40;101486.63;;;11.02;55.90
42169;BME280;27838;43.858;25.974;2024-03-17T02:20:07;101483.22;;;11.06;56.06
42169;BME280;27838;43.858;25.974;2024-03-17T02:22:40;101473.66;;;11.10;55.61
42169;BME280;27838;43.858;25.974;2024-03-17T02:25:06;101478.91;;;11.10;56.69
42169;BME280;27838;43.858;25.974;2024-03-17T02:27:35;101481.44;;;11.05;56.91
42169;BME280;27838;43.858;25.974;2024-03-17T02:30:01;101473.59;;;11.04;57.41
42169;BME280;27838;43.858;25.974;2024-03-17T02:32:28;101479.69;;;11.01;57.21
42169;BME280;27838;43.858;25.974;2024-03-17T02:34:54;101476.13;;;10.96;57.17
42169;BME280;27838;43.858;25.974;2024-03-17T02:37:22;101477.91;;;11.00;57.05
42169;BME280;27838;43.858;25.974;2024-03-17T02:39:47;101470.97;;;10.99;57.06
42169;BME280;27838;43.858;25.974;2024-03-17T02:42:14;101476.19;;;11.02;56.77
42169;BME280;27838;43.858;25.974;2024-03-17T02:44:41;101477.91;;;11.00;57.07
42169;BME280;27838;43.858;25.974;2024-03-17T02:47:08;101480.53;;;11.00;57.09
42169;BME280;27838;43.858;25.974;2024-03-17T02:49:35;101484.00;;;11.01;57.12
42169;BME280;27838;43.858;25.974;2024-03-17T02:52:08;101483.13;;;11.00;57.07
42169;BME280;27838;43.858;25.974;2024-03-17T02:54:38;101474.41;;;10.98;56.98
42169;BME280;27838;43.858;25.974;2024-03-17T02:57:06;101477.06;;;11.01;57.24
42169;BME280;27838;43.858;25.974;2024-03-17T02:59:33;101481.41;;;11.02;56.90
42169;BME280;27838;43.858;25.974;2024-03-17T03:02:00;101483.13;;;11.00;56.86
42169;BME280;27838;43.858;25.974;2024-03-17T03:04:27;101479.59;;;10.95;56.96
42169;BME280;27838;43.858;25.974;2024-03-17T03:06:54;101476.19;;;10.99;57.07
42169;BME280;27838;43.858;25.974;2024-03-17T03:09:20;101472.66;;;10.94;56.90
42169;BME280;27838;43.858;25.974;2024-03-17T03:11:52;101474.50;;;11.07;56.89
42169;BME280;27838;43.858;25.974;2024-03-17T03:14:19;101478.03;;;11.12;56.50
42169;BME280;27838;43.858;25.974;2024-03-17T03:16:47;101476.31;;;11.11;55.85
42169;BME280;27838;43.858;25.974;2024-03-17T03:19:15;101477.09;;;11.03;55.66
42169;BME280;27838;43.858;25.974;2024-03-17T03:21:41;101474.41;;;10.98;55.22
42169;BME280;27838;43.858;25.974;2024-03-17T03:24:08;101478.72;;;10.94;55.27
42169;BME280;27838;43.858;25.974;2024-03-17T03:26:35;101478.69;;;10.91;55.36
42169;BME280;27838;43.858;25.974;2024-03-17T03:29:01;101476.06;;;10.90;55.59
42169;BME280;27838;43.858;25.974;2024-03-17T03:31:30;101476.06;;;10.90;55.69
42169;BME280;27838;43.858;25.974;2024-03-17T03:33:57;101478.63;;;10.87;56.47
42169;BME280;27838;43.858;25.974;2024-03-17T03:36:26;101479.47;;;10.83;56.60
42169;BME280;27838;43.858;25.974;2024-03-17T03:38:53;101471.56;;;10.78;56.88
42169;BME280;27838;43.858;25.974;2024-03-17T03:41:22;101470.66;;;10.74;56.60
42169;BME280;27838;43.858;25.974;2024-03-17T03:43:49;101481.19;;;10.81;56.09
42169;BME280;27838;43.858;25.974;2024-03-17T03:46:16;101479.41;;;10.78;55.91
42169;BME280;27838;43.858;25.974;2024-03-17T03:48:43;101481.97;;;10.73;56.12
42169;BME280;27838;43.858;25.974;2024-03-17T03:51:10;101484.53;;;10.70;55.90
42169;BME280;27838;43.858;25.974;2024-03-17T03:53:37;101472.38;;;10.68;55.39
42169;BME280;27838;43.858;25.974;2024-03-17T03:56:05;101481.88;;;10.66;55.82
42169;BME280;27838;43.858;25.974;2024-03-17T03:58:33;101474.03;;;10.63;55.56
42169;BME280;27838;43.858;25.974;2024-03-17T04:01:04;101478.34;;;10.61;55.36
42169;BME280;27838;43.858;25.974;2024-03-17T04:03:33;101481.78;;;10.58;55.26
42169;BME280;27838;43.858;25.974;2024-03-17T04:06:10;101479.13;;;10.55;55.29
42169;BME280;27838;43.858;25.974;2024-03-17T04:08:38;101475.66;;;10.54;55.79
42169;BME280;27838;43.858;25.974;2024-03-17T04:11:06;101484.41;;;10.60;55.32
42169;BME280;27838;43.858;25.974;2024-03-17T04:13:33;101485.25;;;10.58;54.86
42169;BME280;27838;43.858;25.974;2024-03-17T04:16:01;101484.41;;;10.58;54.97
42169;BME280;27838;43.858;25.974;2024-03-17T04:18:31;101482.63;;;10.57;54.72
42169;BME280;27838;43.858;25.974;2024-03-17T04:21:06;101491.28;;;10.53;54.64
42169;BME280;27838;43.858;25.974;2024-03-17T04:23:33;101483.41;;;10.48;54.71
42169;BME280;27838;43.858;25.974;2024-03-17T04:26:01;101479.00;;;10.43;54.76
42169;BME280;27838;43.858;25.974;2024-03-17T04:28:28;101492.06;;;10.46;54.87
42169;BME280;27838;43.858;25.974;2024-03-17T04:31:03;101489.41;;;10.43;54.75
42169;BME280;27838;43.858;25.974;2024-03-17T04:33:31;101490.28;;;10.42;54.72
42169;BME280;27838;43.858;25.974;2024-03-17T04:35:59;101490.25;;;10.40;54.67
42169;BME280;27838;43.858;25.974;2024-03-17T04:38:26;101496.59;;;10.59;54.31
42169;BME280;27838;43.858;25.974;2024-03-17T04:40:53;101492.66;;;10.96;52.82
42169;BME280;27838;43.858;25.974;2024-03-17T04:43:30;101494.94;;;11.55;51.83
42169;BME280;27838;43.858;25.974;2024-03-17T04:46:04;101491.97;;;12.26;49.96
42169;BME280;27838;43.858;25.974;2024-03-17T04:48:33;101493.97;;;12.83;48.29
42169;BME280;27838;43.858;25.974;2024-03-17T04:50:59;101492.28;;;13.08;47.60
42169;BME280;27838;43.858;25.974;2024-03-17T04:53:27;101497.50;;;13.08;46.95
42169;BME280;27838;43.858;25.974;2024-03-17T04:56:02;101499.22;;;13.00;47.50
42169;BME280;27838;43.858;25.974;2024-03-17T04:58:33;101491.34;;;12.83;48.08
42169;BME280;27838;43.858;25.974;2024-03-17T05:01:07;101500.03;;;12.79;47.99
42169;BME280;27838;43.858;25.974;2024-03-17T05:03:34;101503.53;;;12.69;47.75
42169;BME280;27838;43.858;25.974;2024-03-17T05:06:02;101499.13;;;12.63;48.48
42169;BME280;27838;43.858;25.974;2024-03-17T05:08:30;101499.94;;;12.50;48.90
42169;BME280;27838;43.858;25.974;2024-03-17T05:10:57;101509.50;;;12.44;48.95
42169;BME280;27838;43.858;25.974;2024-03-17T05:13:26;101510.34;;;12.36;49.48
42169;BME280;27838;43.858;25.974;2024-03-17T05:15:53;101512.06;;;12.38;50.45
42169;BME280;27838;43.858;25.974;2024-03-17T05:18:20;101512.97;;;12.37;50.91
42169;BME280;27838;43.858;25.974;2024-03-17T05:20:56;101519.06;;;12.38;50.71
42169;BME280;27838;43.858;25.974;2024-03-17T05:23:28;101524.28;;;12.38;50.53
42169;BME280;27838;43.858;25.974;2024-03-17T05:25:55;101518.22;;;12.43;51.17
42169;BME280;27838;43.858;25.974;2024-03-17T05:28:26;101513.91;;;12.53;51.17
42169;BME280;27838;43.858;25.974;2024-03-17T05:30:52;101517.44;;;12.60;51.24
42169;BME280;27838;43.858;25.974;2024-03-17T05:33:21;101515.69;;;12.60;51.38
42169;BME280;27838;43.858;25.974;2024-03-17T05:35:58;101521.78;;;12.62;51.08
42169;BME280;27838;43.858;25.974;2024-03-17T05:38:29;101514.88;;;12.72;50.97
42169;BME280;27838;43.858;25.974;2024-03-17T05:43:31;101523.63;;;12.85;51.06
42169;BME280;27838;43.858;25.974;2024-03-17T05:46:01;101521.03;;;12.90;51.82
42169;BME280;27838;43.858;25.974;2024-03-17T05:48:29;101521.00;;;12.91;51.48
42169;BME280;27838;43.858;25.974;2024-03-17T05:50:56;101529.75;;;12.95;51.42
42169;BME280;27838;43.858;25.974;2024-03-17T05:53:23;101518.41;;;12.94;51.19
42169;BME280;27838;43.858;25.974;2024-03-17T05:55:50;101521.91;;;12.99;51.18
42169;BME280;27838;43.858;25.974;2024-03-17T05:58:17;101522.78;;;13.03;51.77
42169;BME280;27838;43.858;25.974;2024-03-17T06:00:44;101524.53;;;13.09;51.56
42169;BME280;27838;43.858;25.974;2024-03-17T06:03:11;101534.16;;;13.20;50.35
42169;BME280;27838;43.858;25.974;2024-03-17T06:05:40;101533.38;;;13.34;50.30
42169;BME280;27838;43.858;25.974;2024-03-17T06:08:07;101536.84;;;13.44;50.55
42169;BME280;27838;43.858;25.974;2024-03-17T06:10:37;101537.75;;;13.58;49.91
42169;BME280;27838;43.858;25.974;2024-03-17T06:13:05;101536.00;;;13.68;49.66
42169;BME280;27838;43.858;25.974;2024-03-17T06:15:32;101543.88;;;13.72;49.04
42169;BME280;27838;43.858;25.974;2024-03-17T06:18:00;101540.38;;;13.78;48.28
42169;BME280;27838;43.858;25.974;2024-03-17T06:20:28;101546.50;;;13.88;47.89
42169;BME280;27838;43.858;25.974;2024-03-17T06:22:56;101545.59;;;13.90;47.95
42169;BME280;27838;43.858;25.974;2024-03-17T06:25:22;101553.47;;;13.95;47.73
42169;BME280;27838;43.858;25.974;2024-03-17T06:27:50;101549.97;;;13.97;47.84
42169;BME280;27838;43.858;25.974;2024-03-17T06:30:18;101562.19;;;14.12;47.33
42169;BME280;27838;43.858;25.974;2024-03-17T06:32:45;101559.53;;;14.19;47.21
42169;BME280;27838;43.858;25.974;2024-03-17T06:35:13;101558.69;;;14.20;47.33
42169;BME280;27838;43.858;25.974;2024-03-17T06:37:44;101562.16;;;14.22;47.46
42169;BME280;27838;43.858;25.974;2024-03-17T06:40:14;101564.78;;;14.25;47.67
42169;BME280;27838;43.858;25.974;2024-03-17T06:42:41;101556.03;;;14.29;47.53
42169;BME280;27838;43.858;25.974;2024-03-17T06:45:08;101564.75;;;14.31;47.08
42169;BME280;27838;43.858;25.974;2024-03-17T06:47:38;101564.78;;;14.37;47.14
42169;BME280;27838;43.858;25.974;2024-03-17T06:50:06;101564.72;;;14.45;46.85
42169;BME280;27838;43.858;25.974;2024-03-17T06:52:35;101569.09;;;14.52;47.06
42169;BME280;27838;43.858;25.974;2024-03-17T06:55:02;101564.72;;;14.62;46.15
42169;BME280;27838;43.858;25.974;2024-03-17T06:57:29;101563.88;;;14.64;46.40
42169;BME280;27838;43.858;25.974;2024-03-17T06:59:56;101574.31;;;14.73;46.29
42169;BME280;27838;43.858;25.974;2024-03-17T07:02:22;101564.69;;;14.72;46.29
42169;BME280;27838;43.858;25.974;2024-03-17T07:04:49;101571.69;;;14.70;46.33
42169;BME280;27838;43.858;25.974;2024-03-17T07:07:16;101564.72;;;14.65;46.56
42169;BME280;27838;43.858;25.974;2024-03-17T07:09:42;101572.59;;;14.68;46.57
42169;BME280;27838;43.858;25.974;2024-03-17T07:12:10;101562.09;;;14.63;46.12
42169;BME280;27838;43.858;25.974;2024-03-17T07:14:37;101570.84;;;14.65;47.28
42169;BME280;27838;43.858;25.974;2024-03-17T07:17:04;101572.56;;;14.71;46.93
42169;BME280;27838;43.858;25.974;2024-03-17T07:19:30;101577.84;;;14.63;46.93
42169;BME280;27838;43.858;25.974;2024-03-17T07:21:58;101569.97;;;14.56;46.90
42169;BME280;27838;43.858;25.974;2024-03-17T07:24:24;101568.22;;;14.54;47.06
42169;BME280;27838;43.858;25.974;2024-03-17T07:26:52;101566.47;;;14.57;47.00
42169;BME280;27838;43.858;25.974;2024-03-17T07:29:19;101575.22;;;14.68;47.00
42169;BME280;27838;43.858;25.974;2024-03-17T07:31:46;101571.69;;;14.66;47.64
42169;BME280;27838;43.858;25.974;2024-03-17T07:34:13;101576.97;;;14.63;47.58
42169;BME280;27838;43.858;25.974;2024-03-17T07:36:40;101574.34;;;14.57;47.55
42169;BME280;27838;43.858;25.974;2024-03-17T07:39:06;101570.88;;;14.59;48.36
42169;BME280;27838;43.858;25.974;2024-03-17T07:41:33;101575.22;;;14.60;48.23
42169;BME280;27838;43.858;25.974;2024-03-17T07:44:00;101577.81;;;14.71;48.55
42169;BME280;27838;43.858;25.974;2024-03-17T07:46:26;101569.94;;;14.71;48.32
42169;BME280;27838;43.858;25.974;2024-03-17T07:48:53;101565.59;;;14.67;49.09
42169;BME280;27838;43.858;25.974;2024-03-17T07:51:20;101565.53;;;14.78;49.02
42169;BME280;27838;43.858;25.974;2024-03-17T07:53:47;101567.31;;;14.80;48.90
42169;BME280;27838;43.858;25.974;2024-03-17T07:56:15;101567.25;;;14.88;48.63
42169;BME280;27838;43.858;25.974;2024-03-17T07:58:43;101553.28;;;14.83;49.09
42169;BME280;27838;43.858;25.974;2024-03-17T08:01:15;101554.97;;;14.95;49.33
42169;BME280;27838;43.858;25.974;2024-03-17T08:03:47;101556.69;;;15.05;49.64
42169;BME280;27838;43.858;25.974;2024-03-17T08:06:19;101558.38;;;15.14;48.96
42169;BME280;27838;43.858;25.974;2024-03-17T08:08:46;101563.63;;;15.15;49.45
42169;BME280;27838;43.858;25.974;2024-03-17T08:11:13;101557.47;;;15.21;49.67
42169;BME280;27838;43.858;25.974;2024-03-17T08:13:39;101556.53;;;15.29;49.65
42169;BME280;27838;43.858;25.974;2024-03-17T08:16:07;101559.09;;;15.39;49.91
42169;BME280;27838;43.858;25.974;2024-03-17T08:18:35;101558.16;;;15.46;49.32
42169;BME280;27838;43.858;25.974;2024-03-17T08:21:03;101552.88;;;15.52;49.02
42169;BME280;27838;43.858;25.974;2024-03-17T08:23:32;101546.78;;;15.50;49.02
42169;BME280;27838;43.858;25.974;2024-03-17T08:26:01;101549.41;;;15.48;49.59
42169;BME280;27838;43.858;25.974;2024-03-17T08:28:28;101540.50;;;15.65;48.96
42169;BME280;27838;43.858;25.974;2024-03-17T08:30:56;101539.56;;;15.74;49.19
42169;BME280;27838;43.858;25.974;2024-03-17T08:33:24;101541.28;;;15.81;49.36
42169;BME280;27838;43.858;25.974;2024-03-17T08:35:59;101537.69;;;15.91;48.90
42169;BME280;27838;43.858;25.974;2024-03-17T08:38:27;101528.00;;;15.95;49.07
42169;BME280;27838;43.858;25.974;2024-03-17T08:40:55;101529.63;;;16.11;49.62
42169;BME280;27838;43.858;25.974;2024-03-17T08:43:23;101528.47;;;16.35;49.08
42169;BME280;27838;43.858;25.974;2024-03-17T08:46:00;101523.00;;;16.54;48.26
42169;BME280;27838;43.858;25.974;2024-03-17T08:48:29;101527.19;;;16.70;47.61
42169;BME280;27838;43.858;25.974;2024-03-17T08:50:58;101518.41;;;16.71;47.89
42169;BME280;27838;43.858;25.974;2024-03-17T08:53:25;101519.03;;;16.93;47.35
42169;BME280;27838;43.858;25.974;2024-03-17T08:55:53;101513.66;;;17.01;47.44
42169;BME280;27838;43.858;25.974;2024-03-17T08:58:20;101512.56;;;17.16;46.82
42169;BME280;27838;43.858;25.974;2024-03-17T09:00:47;101508.84;;;17.29;46.62
42169;BME280;27838;43.858;25.974;2024-03-17T09:03:14;101506.28;;;17.25;46.37
42169;BME280;27838;43.858;25.974;2024-03-17T09:05:43;101500.94;;;17.29;46.43
42169;BME280;27838;43.858;25.974;2024-03-17T09:08:21;101501.66;;;17.39;46.60
42169;BME280;27838;43.858;25.974;2024-03-17T09:10:50;101499.75;;;17.49;46.09
42169;BME280;27838;43.858;25.974;2024-03-17T09:13:19;101501.22;;;17.67;46.25
42169;BME280;27838;43.858;25.974;2024-03-17T09:15:54;101496.47;;;17.87;45.54
42169;BME280;27838;43.858;25.974;2024-03-17T09:18:22;101496.16;;;18.06;43.47
42169;BME280;27838;43.858;25.974;2024-03-17T09:21:03;101497.56;;;18.24;43.79
42169;BME280;27838;43.858;25.974;2024-03-17T09:23:31;101489.38;;;18.36;43.89
42169;BME280;27838;43.858;25.974;2024-03-17T09:26:09;101495.09;;;18.58;44.28
42169;BME280;27838;43.858;25.974;2024-03-17T09:28:38;101479.25;;;18.58;42.76
42169;BME280;27838;43.858;25.974;2024-03-17T09:31:04;101484.28;;;18.71;42.99
42169;BME280;27838;43.858;25.974;2024-03-17T09:33:34;101485.06;;;18.76;42.23
42169;BME280;27838;43.858;25.974;2024-03-17T09:36:03;101492.78;;;18.85;42.20
42169;BME280;27838;43.858;25.974;2024-03-17T09:38:32;101478.34;;;19.01;42.04
42169;BME280;27838;43.858;25.974;2024-03-17T09:40:59;101477.16;;;19.13;40.94
42169;BME280;27838;43.858;25.974;2024-03-17T09:43:27;101477.78;;;19.26;40.04
42169;BME280;27838;43.858;25.974;2024-03-17T09:45:54;101469.72;;;19.31;39.00
42169;BME280;27838;43.858;25.974;2024-03-17T09:48:24;101470.38;;;19.40;36.01
42169;BME280;27838;43.858;25.974;2024-03-17T09:50:52;101463.00;;;19.52;37.37
42169;BME280;27838;43.858;25.974;2024-03-17T09:53:27;101457.25;;;19.70;38.67
42169;BME280;27838;43.858;25.974;2024-03-17T09:55:58;101456.25;;;19.76;38.08
42169;BME280;27838;43.858;25.974;2024-03-17T09:58:25;101455.50;;;19.69;37.22
42169;BME280;27838;43.858;25.974;2024-03-17T10:00:52;101455.91;;;19.88;35.12
42169;BME280;27838;43.858;25.974;2024-03-17T10:03:53;101453.47;;;20.13;34.89
42169;BME280;27838;43.858;25.974;2024-03-17T10:06:22;101448.56;;;20.31;34.62
42169;BME280;27838;43.858;25.974;2024-03-17T10:08:56;101453.47;;;20.45;36.07
42169;BME280;27838;43.858;25.974;2024-03-17T10:11:32;101444.84;;;20.38;36.74
42169;BME280;27838;43.858;25.974;2024-03-17T10:14:04;101442.84;;;20.46;33.52
42169;BME280;27838;43.858;25.974;2024-03-17T10:16:31;101442.34;;;20.63;34.58
42169;BME280;27838;43.858;25.974;2024-03-17T10:19:21;101428.66;;;20.77;34.96
42169;BME280;27838;43.858;25.974;2024-03-17T10:21:49;101434.38;;;20.91;34.63
42169;BME280;27838;43.858;25.974;2024-03-17T10:24:24;101431.72;;;20.91;34.78
42169;BME280;27838;43.858;25.974;2024-03-17T10:26:53;101435.81;;;21.02;34.51
42169;BME280;27838;43.858;25.974;2024-03-17T10:29:27;101439.72;;;21.18;33.38
42169;BME280;27838;43.858;25.974;2024-03-17T10:32:15;101427.47;;;20.87;33.80
42169;BME280;27838;43.858;25.974;2024-03-17T10:34:42;101430.25;;;20.83;34.10
42169;BME280;27838;43.858;25.974;2024-03-17T10:37:11;101432.75;;;20.87;31.47
42169;BME280;27838;43.858;25.974;2024-03-17T10:39:41;101429.72;;;21.00;32.18
42169;BME280;27838;43.858;25.974;2024-03-17T10:42:10;101431.19;;;21.08;33.43
42169;BME280;27838;43.858;25.974;2024-03-17T10:44:41;101432.94;;;21.09;32.17
42169;BME280;27838;43.858;25.974;2024-03-17T10:47:20;101425.41;;;20.97;32.20
42169;BME280;27838;43.858;25.974;2024-03-17T10:49:50;101425.94;;;21.07;32.81
42169;BME280;27838;43.858;25.974;2024-03-17T10:52:17;101413.47;;;21.10;32.28
42169;BME280;27838;43.858;25.974;2024-03-17T10:54:52;101422.88;;;21.19;32.37
42169;BME280;27838;43.858;25.974;2024-03-17T10:59:47;101415.97;;;21.15;31.91
42169;BME280;27838;43.858;25.974;2024-03-17T11:04:55;101407.19;;;21.40;31.93
42169;BME280;27838;43.858;25.974;2024-03-17T11:07:23;101405.50;;;21.64;31.79
42169;BME280;27838;43.858;25.974;2024-03-17T11:09:51;101400.28;;;21.61;29.66
42169;BME280;27838;43.858;25.974;2024-03-17T11:17:56;101386.47;;;21.76;30.67
42169;BME280;27838;43.858;25.974;2024-03-17T11:20:44;101390.28;;;21.93;30.65
42169;BME280;27838;43.858;25.974;2024-03-17T11:23:29;101384.72;;;22.00;31.29
42169;BME280;27838;43.858;25.974;2024-03-17T11:25:57;101381.59;;;21.89;31.15
42169;BME280;27838;43.858;25.974;2024-03-17T11:31:44;101382.59;;;21.61;30.85
42169;BME280;27838;43.858;25.974;2024-03-17T11:34:37;101382.59;;;21.61;30.76
42169;BME280;27838;43.858;25.974;2024-03-17T11:37:05;101374.63;;;21.61;31.07
42169;BME280;27838;43.858;25.974;2024-03-17T11:39:50;101367.09;;;21.49;30.94
42169;BME280;27838;43.858;25.974;2024-03-17T11:42:21;101358.34;;;21.47;31.08
42169;BME280;27838;43.858;25.974;2024-03-17T11:44:59;101358.84;;;21.31;30.97
42169;BME280;27838;43.858;25.974;2024-03-17T11:47:39;101359.72;;;21.05;31.19
42169;BME280;27838;43.858;25.974;2024-03-17T11:50:10;101354.09;;;20.89;31.43
42169;BME280;27838;43.858;25.974;2024-03-17T11:52:39;101353.38;;;20.84;31.56
42169;BME280;27838;43.858;25.974;2024-03-17T11:55:16;101351.16;;;20.99;31.55
42169;BME280;27838;43.858;25.974;2024-03-17T11:57:44;101352.97;;;20.97;31.54
42169;BME280;27838;43.858;25.974;2024-03-17T12:00:21;101342.97;;;21.05;31.30
42169;BME280;27838;43.858;25.974;2024-03-17T12:02:49;101339.50;;;21.03;30.55
42169;BME280;27838;43.858;25.974;2024-03-17T12:05:15;101339.56;;;21.01;30.62
42169;BME280;27838;43.858;25.974;2024-03-17T12:07:43;101336.16;;;20.98;30.18
42169;BME280;27838;43.858;25.974;2024-03-17T12:10:11;101330.56;;;20.80;30.63
42169;BME280;27838;43.858;25.974;2024-03-17T12:12:40;101334.50;;;20.67;31.27
42169;BME280;27838;43.858;25.974;2024-03-17T12:15:17;101336.53;;;20.59;30.73
42169;BME280;27838;43.858;25.974;2024-03-17T12:17:44;101329.03;;;20.45;30.78
42169;BME280;27838;43.858;25.974;2024-03-17T12:20:17;101327.47;;;20.37;30.40
42169;BME280;27838;43.858;25.974;2024-03-17T12:22:45;101324.84;;;20.37;30.55
42169;BME280;27838;43.858;25.974;2024-03-17T12:25:21;101329.88;;;20.45;30.96
42169;BME280;27838;43.858;25.974;2024-03-17T12:27:48;101314.97;;;20.43;31.43
42169;BME280;27838;43.858;25.974;2024-03-17T12:30:15;101322.84;;;20.44;30.43
42169;BME280;27838;43.858;25.974;2024-03-17T12:32:43;101314.56;;;20.55;29.85
42169;BME280;27838;43.858;25.974;2024-03-17T12:35:14;101311.59;;;20.66;30.75
42169;BME280;27838;43.858;25.974;2024-03-17T12:37:43;101312.84;;;20.54;31.48
42169;BME280;27838;43.858;25.974;2024-03-17T12:40:20;101312.88;;;20.52;32.24
42169;BME280;27838;43.858;25.974;2024-03-17T12:42:48;101312.66;;;20.60;32.35
42169;BME280;27838;43.858;25.974;2024-03-17T12:45:19;101300.78;;;20.72;32.44
42169;BME280;27838;43.858;25.974;2024-03-17T12:47:48;101308.56;;;20.78;33.54
42169;BME280;27838;43.858;25.974;2024-03-17T12:50:14;101305.50;;;20.64;34.00
42169;BME280;27838;43.858;25.974;2024-03-17T12:52:51;101302.72;;;20.67;34.38
42169;BME280;27838;43.858;25.974;2024-03-17T12:55:21;101301.78;;;20.69;34.65
42169;BME280;27838;43.858;25.974;2024-03-17T12:58:06;101293.97;;;20.65;34.49
42169;BME280;27838;43.858;25.974;2024-03-17T13:01:01;101290.13;;;20.47;34.66
42169;BME280;27838;43.858;25.974;2024-03-17T13:03:35;101294.16;;;20.30;34.58
42169;BME280;27838;43.858;25.974;2024-03-17T13:06:05;101290.50;;;20.06;35.19
42169;BME280;27838;43.858;25.974;2024-03-17T13:08:33;101291.28;;;20.10;35.83